createdAt,value
2019-05-23T00:02:15.682Z,3.00
2019-05-23T00:05:16.884Z,2.60
2019-05-23T00:08:08.819Z,4.07
2019-05-23T00:11:22.023Z,2.47
2019-05-23T00:14:22.470Z,1.67
2019-05-23T00:17:14.307Z,3.67
2019-05-23T00:20:02.216Z,5.07
2019-05-23T00:22:51.303Z,2.83
2019-05-23T00:25:40.387Z,2.20
2019-05-23T00:28:28.010Z,3.10
2019-05-23T00:31:40.857Z,4.00
2019-05-23T00:34:29.865Z,4.27
2019-05-23T00:37:17.822Z,2.40
2019-05-23T00:40:06.362Z,2.63
2019-05-23T00:42:54.843Z,2.70
2019-05-23T00:45:43.430Z,3.10
2019-05-23T00:48:31.865Z,2.23
2019-05-23T00:51:21.461Z,2.30
2019-05-23T00:54:09.239Z,2.70
2019-05-23T00:56:57.062Z,4.97
2019-05-23T00:59:45.219Z,2.83
2019-05-23T01:02:33.982Z,3.23
2019-05-23T01:05:22.301Z,3.77
2019-05-23T01:08:10.557Z,4.13
2019-05-23T01:10:58.439Z,4.73
2019-05-23T01:13:46.277Z,3.97
2019-05-23T01:16:34.153Z,5.17
2019-05-23T01:19:21.637Z,4.90
2019-05-23T01:22:11.399Z,6.00
2019-05-23T01:24:59.472Z,6.37
2019-05-23T01:27:47.194Z,6.83
2019-05-23T01:30:41.210Z,6.77
2019-05-23T01:33:29.137Z,8.37
2019-05-23T01:36:17.617Z,4.63
2019-05-23T01:39:08.566Z,5.87
2019-05-23T01:41:56.630Z,3.90
2019-05-23T01:44:44.704Z,6.70
2019-05-23T01:47:32.375Z,4.47
2019-05-23T01:50:25.324Z,4.00
2019-05-23T01:53:13.979Z,6.53
2019-05-23T01:56:01.268Z,4.83
2019-05-23T01:58:48.931Z,4.23
2019-05-23T02:01:37.562Z,3.70
2019-05-23T02:04:24.938Z,4.57
2019-05-23T02:07:13.656Z,4.17
2019-05-23T02:10:01.044Z,4.33
2019-05-23T02:12:48.720Z,3.87
2019-05-23T02:15:36.908Z,4.40
2019-05-23T02:18:26.408Z,3.23
2019-05-23T02:21:15.860Z,5.93
2019-05-23T02:24:05.129Z,5.50
2019-05-23T02:26:52.806Z,4.10
2019-05-23T02:29:41.919Z,3.93
2019-05-23T02:32:31.061Z,5.27
2019-05-23T02:35:19.542Z,7.83
2019-05-23T02:38:28.664Z,3.67
2019-05-23T02:41:28.736Z,3.87
2019-05-23T02:44:21.227Z,6.23
2019-05-23T02:47:26.311Z,4.33
2019-05-23T02:50:22.390Z,5.97
2019-05-23T02:53:13.527Z,7.40
2019-05-23T02:56:05.445Z,4.23
2019-05-23T02:59:28.959Z,3.53
2019-05-23T03:02:45.752Z,4.83
2019-05-23T03:05:37.186Z,4.70
2019-05-23T03:08:25.176Z,5.83
2019-05-23T03:11:36.602Z,5.67
2019-05-23T03:14:26.041Z,7.10
2019-05-23T03:17:16.343Z,5.33
2019-05-23T03:20:06.181Z,5.73
2019-05-23T03:22:58.650Z,6.40
2019-05-23T03:26:34.726Z,5.10
2019-05-23T03:29:22.778Z,4.03
2019-05-23T03:32:37.337Z,4.93
2019-05-23T03:35:33.230Z,7.03
2019-05-23T03:38:20.792Z,6.17
2019-05-23T03:41:08.429Z,8.00
2019-05-23T03:43:57.020Z,6.23
2019-05-23T03:46:47.036Z,9.07
2019-05-23T03:49:34.962Z,6.77
2019-05-23T03:52:23.827Z,8.10
2019-05-23T03:55:11.899Z,10.07
2019-05-23T03:58:00.872Z,6.87
2019-05-23T04:00:52.555Z,7.27
2019-05-23T04:03:42.320Z,7.17
2019-05-23T04:06:30.188Z,6.77
2019-05-23T04:09:17.918Z,8.73
2019-05-23T04:12:06.006Z,11.60
2019-05-23T04:14:53.776Z,7.73
2019-05-23T04:17:41.291Z,7.37
2019-05-23T04:20:28.325Z,7.13
2019-05-23T04:23:17.815Z,8.47
2019-05-23T04:26:06.059Z,7.23
2019-05-23T04:28:53.607Z,8.27
2019-05-23T04:31:41.059Z,9.37
2019-05-23T04:34:29.601Z,10.70
2019-05-23T04:37:17.013Z,7.27
2019-05-23T04:40:06.835Z,10.17
2019-05-23T04:42:54.444Z,10.13
2019-05-23T04:45:43.720Z,12.00
2019-05-23T04:48:31.097Z,9.60
2019-05-23T04:51:20.763Z,13.30
2019-05-23T04:54:08.783Z,11.30
2019-05-23T04:56:56.535Z,11.13
2019-05-23T04:59:44.870Z,10.93
2019-05-23T05:02:31.922Z,8.80
2019-05-23T05:05:19.465Z,8.07
2019-05-23T05:08:07.194Z,10.50
2019-05-23T05:10:55.100Z,10.93
2019-05-23T05:13:43.546Z,11.97
2019-05-23T05:16:31.713Z,12.43
2019-05-23T05:19:19.860Z,11.67
2019-05-23T05:22:07.566Z,8.80
2019-05-23T05:24:55.266Z,8.13
2019-05-23T05:27:42.656Z,6.70
2019-05-23T05:30:30.536Z,7.33
2019-05-23T05:33:18.518Z,5.57
2019-05-23T05:36:07.722Z,7.80
2019-05-23T05:38:55.262Z,7.73
2019-05-23T05:41:43.335Z,7.20
2019-05-23T05:44:30.657Z,7.33
2019-05-23T05:47:19.414Z,4.77
2019-05-23T05:50:08.449Z,8.57
2019-05-23T05:52:55.726Z,7.47
2019-05-23T05:55:42.945Z,8.37
2019-05-23T05:58:30.430Z,7.40
2019-05-23T06:01:32.713Z,7.90
2019-05-23T06:04:07.082Z,9.90
2019-05-23T06:07:00.717Z,9.93
2019-05-23T06:09:49.216Z,8.37
2019-05-23T06:12:36.701Z,7.17
2019-05-23T06:15:25.292Z,5.83
2019-05-23T06:18:13.016Z,7.00
2019-05-23T06:21:01.296Z,5.87
2019-05-23T06:23:51.129Z,6.10
2019-05-23T06:26:38.505Z,9.07
2019-05-23T06:29:25.944Z,8.00
2019-05-23T06:32:16.927Z,8.13
2019-05-23T06:35:05.677Z,9.67
2019-05-23T06:37:53.513Z,8.83
2019-05-23T06:40:42.819Z,9.50
2019-05-23T06:43:31.203Z,11.13
2019-05-23T06:46:18.706Z,7.90
2019-05-23T06:49:06.313Z,10.27
2019-05-23T06:51:53.835Z,9.67
2019-05-23T06:54:41.298Z,10.67
2019-05-23T06:57:28.807Z,8.80
2019-05-23T07:00:18.690Z,10.00
2019-05-23T07:03:06.086Z,9.50
2019-05-23T07:05:53.744Z,10.60
2019-05-23T07:08:41.500Z,9.90
2019-05-23T07:11:29.364Z,8.93
2019-05-23T07:14:17.513Z,9.27
2019-05-23T07:17:05.933Z,9.23
2019-05-23T07:19:53.349Z,10.77
2019-05-23T07:22:41.614Z,12.53
2019-05-23T07:25:29.745Z,11.60
2019-05-23T07:28:17.251Z,11.83
2019-05-23T07:31:04.862Z,16.93
2019-05-23T07:34:01.930Z,16.30
2019-05-23T07:36:41.460Z,11.67
2019-05-23T07:39:29.587Z,15.17
2019-05-23T07:42:17.300Z,12.13
2019-05-23T07:45:06.294Z,14.73
2019-05-23T07:47:55.596Z,12.10
2019-05-23T07:50:43.076Z,14.20
2019-05-23T07:54:01.536Z,12.80
2019-05-23T07:56:49.791Z,10.00
2019-05-23T07:59:37.007Z,14.30
2019-05-23T08:02:34.018Z,14.70
2019-05-23T08:05:22.151Z,13.10
2019-05-23T08:08:10.539Z,13.23
2019-05-23T08:10:57.873Z,16.43
2019-05-23T08:13:45.492Z,12.70
2019-05-23T08:16:33.507Z,14.80
2019-05-23T08:19:21.325Z,13.83
2019-05-23T08:22:08.954Z,14.23
2019-05-23T08:24:56.371Z,14.17
2019-05-23T08:27:44.215Z,12.60
2019-05-23T08:30:32.037Z,15.47
2019-05-23T08:33:19.177Z,15.63
2019-05-23T08:36:07.543Z,16.20
2019-05-23T08:38:55.521Z,13.30
2019-05-23T08:41:43.003Z,11.43
2019-05-23T08:44:30.860Z,13.73
2019-05-23T08:47:18.321Z,14.00
2019-05-23T08:50:07.833Z,11.67
2019-05-23T08:52:56.268Z,15.40
2019-05-23T08:55:49.793Z,11.30
2019-05-23T08:58:37.136Z,12.00
2019-05-23T09:01:25.122Z,12.63
2019-05-23T09:04:12.801Z,14.37
2019-05-23T09:07:01.390Z,10.80
2019-05-23T09:09:49.289Z,13.40
2019-05-23T09:12:37.355Z,14.00
2019-05-23T09:15:25.347Z,10.37
2019-05-23T09:18:13.374Z,12.77
2019-05-23T09:21:01.121Z,12.37
2019-05-23T09:23:48.693Z,10.87
2019-05-23T09:26:36.249Z,10.70
2019-05-23T09:29:24.067Z,13.00
2019-05-23T09:32:11.615Z,14.17
2019-05-23T09:35:01.434Z,12.93
2019-05-23T09:37:49.630Z,12.23
2019-05-23T09:40:36.843Z,14.17
2019-05-23T09:43:24.213Z,11.97
2019-05-23T09:46:11.913Z,14.93
2019-05-23T09:49:00.430Z,11.30
2019-05-23T09:51:49.241Z,12.43
2019-05-23T09:54:36.769Z,17.13
2019-05-23T09:57:25.031Z,11.40
2019-05-23T10:00:15.209Z,12.30
2019-05-23T10:03:03.146Z,10.77
2019-05-23T10:05:52.335Z,12.40
2019-05-23T10:08:39.732Z,13.00
2019-05-23T10:11:27.683Z,12.07
2019-05-23T10:14:20.503Z,12.67
2019-05-23T10:17:07.961Z,12.77
2019-05-23T10:19:55.648Z,11.73
2019-05-23T10:22:43.475Z,10.90
2019-05-23T10:25:30.776Z,11.10
2019-05-23T10:28:18.742Z,11.33
2019-05-23T10:31:08.051Z,11.63
2019-05-23T10:33:56.630Z,10.13
2019-05-23T10:36:44.084Z,13.70
2019-05-23T10:39:32.280Z,10.67
2019-05-23T10:42:19.885Z,10.33
2019-05-23T10:45:08.803Z,9.70
2019-05-23T10:47:56.305Z,10.50
2019-05-23T10:50:45.342Z,10.17
2019-05-23T10:53:32.826Z,7.00
2019-05-23T10:56:21.765Z,9.20
2019-05-23T10:59:08.876Z,8.17
2019-05-23T11:01:56.713Z,10.93
2019-05-23T11:04:44.319Z,10.07
2019-05-23T11:07:31.653Z,8.23
2019-05-23T11:10:19.078Z,6.60
2019-05-23T11:13:06.594Z,6.87
2019-05-23T11:15:54.521Z,8.80
2019-05-23T11:18:42.006Z,12.63
2019-05-23T11:21:29.813Z,6.77
2019-05-23T11:24:18.335Z,9.50
2019-05-23T11:27:05.971Z,6.40
2019-05-23T11:29:53.315Z,9.07
2019-05-23T11:32:41.190Z,8.00
2019-05-23T11:35:29.518Z,9.97
2019-05-23T11:38:17.797Z,6.43
2019-05-23T11:41:05.209Z,6.93
2019-05-23T11:43:53.339Z,5.47
2019-05-23T11:46:40.778Z,6.80
2019-05-23T11:49:28.215Z,7.07
2019-05-23T11:52:16.447Z,6.73
2019-05-23T11:55:03.953Z,6.20
2019-05-23T11:57:51.821Z,9.87
2019-05-23T12:01:28.006Z,5.57
2019-05-23T12:04:17.409Z,7.57
2019-05-23T12:07:21.620Z,9.00
2019-05-23T12:10:09.316Z,6.13
2019-05-23T12:12:56.880Z,5.47
2019-05-23T12:15:45.066Z,5.87
2019-05-23T12:18:32.377Z,6.33
2019-05-23T12:21:20.543Z,7.90
2019-05-23T12:24:09.202Z,7.20
2019-05-23T12:26:56.241Z,5.30
2019-05-23T12:29:44.686Z,4.40
2019-05-23T12:32:32.278Z,6.23
2019-05-23T12:35:19.829Z,8.67
2019-05-23T12:38:06.802Z,4.80
2019-05-23T12:40:55.320Z,6.13
2019-05-23T12:43:42.841Z,6.47
2019-05-23T12:46:33.114Z,7.43
2019-05-23T12:49:26.255Z,6.33
2019-05-23T12:52:14.862Z,7.10
2019-05-23T12:55:02.949Z,7.60
2019-05-23T12:57:50.626Z,7.33
2019-05-23T13:00:49.752Z,6.57
2019-05-23T13:03:37.299Z,7.07
2019-05-23T13:06:25.463Z,5.57
2019-05-23T13:09:13.222Z,6.03
2019-05-23T13:12:00.558Z,5.87
2019-05-23T13:14:47.962Z,6.57
2019-05-23T13:17:35.444Z,5.50
2019-05-23T13:20:23.523Z,4.17
2019-05-23T13:23:20.410Z,12.43
2019-05-23T13:26:00.531Z,4.70
2019-05-23T13:28:48.262Z,8.80
2019-05-23T13:31:35.659Z,5.73
2019-05-23T13:34:22.983Z,7.20
2019-05-23T13:37:16.126Z,3.83
2019-05-23T13:40:00.610Z,4.97
2019-05-23T13:42:48.397Z,5.47
2019-05-23T13:45:35.539Z,5.17
2019-05-23T13:48:28.034Z,7.17
2019-05-23T13:51:16.936Z,6.40
2019-05-23T13:54:04.921Z,6.43
2019-05-23T13:57:02.577Z,4.80
2019-05-23T13:59:50.718Z,4.30
2019-05-23T14:02:38.791Z,6.50
2019-05-23T14:05:26.956Z,5.47
2019-05-23T14:08:18.833Z,5.87
2019-05-23T14:11:20.267Z,9.10
2019-05-23T14:14:08.128Z,4.73
2019-05-23T14:17:21.621Z,8.07
2019-05-23T14:20:09.924Z,4.97
2019-05-23T14:23:02.450Z,7.97
2019-05-23T14:25:49.834Z,6.40
2019-05-23T14:28:37.938Z,7.30
2019-05-23T14:31:25.817Z,5.77
2019-05-23T14:34:16.075Z,7.13
2019-05-23T14:37:19.257Z,6.30
2019-05-23T14:40:09.778Z,5.13
2019-05-23T14:43:06.535Z,5.00
2019-05-23T14:46:03.979Z,5.37
2019-05-23T14:49:07.367Z,5.93
2019-05-23T14:52:15.659Z,3.03
2019-05-23T14:55:10.196Z,4.73
2019-05-23T14:57:55.789Z,5.50
2019-05-23T15:00:44.994Z,5.47
2019-05-23T15:03:35.562Z,5.53
2019-05-23T15:06:22.347Z,5.97
2019-05-23T15:09:10.117Z,7.77
2019-05-23T15:11:57.413Z,5.67
2019-05-23T15:14:46.316Z,5.37
2019-05-23T15:17:33.887Z,5.27
2019-05-23T15:20:21.313Z,3.50
2019-05-23T15:23:09.136Z,7.60
2019-05-23T15:25:57.286Z,5.73
2019-05-23T15:28:45.106Z,4.30
2019-05-23T15:31:32.588Z,3.73
2019-05-23T15:34:19.956Z,3.50
2019-05-23T15:37:07.251Z,3.40
2019-05-23T15:39:54.273Z,4.50
2019-05-23T15:42:41.650Z,4.23
2019-05-23T15:45:29.710Z,4.73
2019-05-23T15:48:17.335Z,3.90
2019-05-23T15:51:06.872Z,5.90
2019-05-23T15:54:13.303Z,3.70
2019-05-23T15:57:13.886Z,4.57
2019-05-23T16:00:29.801Z,4.17
2019-05-23T16:03:34.572Z,5.77
2019-05-23T16:06:23.800Z,4.30
2019-05-23T16:09:27.509Z,5.07
2019-05-23T16:12:02.303Z,4.60
2019-05-23T16:14:49.782Z,6.87
2019-05-23T16:17:37.714Z,6.57
2019-05-23T16:20:25.191Z,3.97
2019-05-23T16:23:12.463Z,7.40
2019-05-23T16:26:00.029Z,4.30
2019-05-23T16:28:47.832Z,4.73
2019-05-23T16:31:35.427Z,4.30
2019-05-23T16:34:22.795Z,2.90
2019-05-23T16:37:09.841Z,4.97
2019-05-23T16:39:57.226Z,2.77
2019-05-23T16:42:44.634Z,2.97
2019-05-23T16:45:32.059Z,4.60
2019-05-23T16:48:19.810Z,4.00
2019-05-23T16:51:08.020Z,4.13
2019-05-23T16:53:55.774Z,6.70
2019-05-23T16:57:17.638Z,5.00
2019-05-23T17:00:26.047Z,3.27
2019-05-23T17:03:23.643Z,4.23
2019-05-23T17:06:29.255Z,4.50
2019-05-23T17:09:42.263Z,3.70
2019-05-23T17:12:37.033Z,2.67
2019-05-23T17:15:42.191Z,5.80
2019-05-23T17:18:41.970Z,3.07
2019-05-23T17:21:54.018Z,3.10
2019-05-23T17:24:49.137Z,5.90
2019-05-23T17:27:51.867Z,3.53
2019-05-23T17:30:48.657Z,4.57
2019-05-23T17:33:37.260Z,6.37
2019-05-23T17:36:25.469Z,3.77
2019-05-23T17:39:15.133Z,3.17
2019-05-23T17:42:03.580Z,4.67
2019-05-23T17:44:51.171Z,2.43
2019-05-23T17:47:38.311Z,4.33
2019-05-23T17:50:26.659Z,3.03
2019-05-23T17:53:14.843Z,3.30
2019-05-23T17:56:02.850Z,4.83
2019-05-23T17:58:50.834Z,5.90
2019-05-23T18:01:38.768Z,3.20
2019-05-23T18:04:26.523Z,5.53
2019-05-23T18:07:14.588Z,2.97
2019-05-23T18:10:02.726Z,4.23
2019-05-23T18:12:50.389Z,4.00
2019-05-23T18:15:40.423Z,2.30
2019-05-23T18:18:28.429Z,2.53
2019-05-23T18:21:16.677Z,4.97
2019-05-23T18:24:04.907Z,2.97
2019-05-23T18:26:52.439Z,3.77
2019-05-23T18:29:40.126Z,6.00
2019-05-23T18:32:28.589Z,3.67
2019-05-23T18:35:17.633Z,4.00
2019-05-23T18:38:07.557Z,3.40
2019-05-23T18:41:03.981Z,6.40
2019-05-23T18:43:45.052Z,3.27
2019-05-23T18:46:37.844Z,2.20
2019-05-23T18:49:25.700Z,3.40
2019-05-23T18:52:13.298Z,2.73
2019-05-23T18:55:00.530Z,3.57
2019-05-23T18:57:51.766Z,3.53
2019-05-23T19:01:00.427Z,4.30
2019-05-23T19:03:48.592Z,3.43
2019-05-23T19:06:36.733Z,5.10
2019-05-23T19:09:25.922Z,4.77
2019-05-23T19:12:15.494Z,5.83
2019-05-23T19:15:03.093Z,6.30
2019-05-23T19:17:50.414Z,3.67
2019-05-23T19:20:39.956Z,6.60
2019-05-23T19:23:27.504Z,3.37
2019-05-23T19:26:15.348Z,2.43
2019-05-23T19:29:03.274Z,5.00
2019-05-23T19:31:50.294Z,3.97
2019-05-23T19:34:38.576Z,3.43
2019-05-23T19:37:26.356Z,2.87
2019-05-23T19:40:13.829Z,2.20
2019-05-23T19:43:01.755Z,2.70
2019-05-23T19:45:49.812Z,2.00
2019-05-23T19:48:39.657Z,2.50
2019-05-23T19:51:28.475Z,3.00
2019-05-23T19:54:16.509Z,3.83
2019-05-23T19:57:03.709Z,3.00
2019-05-23T19:59:51.195Z,2.50
2019-05-23T20:02:53.798Z,1.70
2019-05-23T20:05:41.688Z,2.90
2019-05-23T20:08:29.254Z,1.80
2019-05-23T20:11:17.575Z,2.30
2019-05-23T20:14:05.259Z,2.00
2019-05-23T20:16:53.070Z,6.77
2019-05-23T20:19:40.452Z,3.23
2019-05-23T20:22:28.005Z,6.37
2019-05-23T20:25:16.543Z,3.47
2019-05-23T20:28:03.973Z,3.43
2019-05-23T20:30:52.766Z,4.03
2019-05-23T20:33:40.462Z,3.50
2019-05-23T20:36:28.701Z,3.00
2019-05-23T20:39:17.393Z,7.20
2019-05-23T20:42:11.548Z,5.83
2019-05-23T20:44:53.937Z,4.37
2019-05-23T20:47:41.375Z,4.03
2019-05-23T20:50:29.096Z,5.00
2019-05-23T20:53:17.041Z,3.57
2019-05-23T20:56:05.303Z,3.77
2019-05-23T20:58:52.941Z,4.60
2019-05-23T21:01:42.590Z,4.20
2019-05-23T21:04:30.021Z,4.83
2019-05-23T21:07:17.760Z,3.40
2019-05-23T21:10:05.596Z,4.70
2019-05-23T21:12:52.949Z,3.33
2019-05-23T21:15:41.714Z,3.43
2019-05-23T21:18:29.260Z,2.70
2019-05-23T21:21:16.946Z,4.07
2019-05-23T21:24:04.752Z,3.83
2019-05-23T21:26:52.271Z,4.07
2019-05-23T21:29:40.116Z,4.60
2019-05-23T21:32:27.367Z,5.10
2019-05-23T21:35:15.005Z,2.73
2019-05-23T21:38:02.636Z,4.03
2019-05-23T21:40:50.008Z,3.10
2019-05-23T21:43:37.634Z,3.17
2019-05-23T21:46:24.943Z,2.60
2019-05-23T21:49:13.304Z,3.87
2019-05-23T21:52:00.998Z,6.40
2019-05-23T21:54:50.311Z,5.67
2019-05-23T21:57:37.891Z,6.43
2019-05-23T22:00:48.705Z,5.40
2019-05-23T22:03:37.895Z,3.97
2019-05-23T22:06:28.115Z,6.30
2019-05-23T22:09:18.132Z,3.50
2019-05-23T22:12:12.521Z,3.80
2019-05-23T22:15:00.843Z,5.23
2019-05-23T22:17:49.546Z,10.07
2019-05-23T22:20:37.013Z,3.33
2019-05-23T22:23:25.919Z,5.63
2019-05-23T22:26:13.889Z,6.77
2019-05-23T22:29:01.511Z,6.70
2019-05-23T22:31:49.263Z,5.37
2019-05-23T22:35:01.838Z,4.67
2019-05-23T22:37:49.026Z,4.70
2019-05-23T22:40:38.517Z,4.27
2019-05-23T22:43:25.893Z,4.17
2019-05-23T22:46:13.841Z,5.63
2019-05-23T22:49:01.245Z,4.43
2019-05-23T22:51:48.598Z,4.33
2019-05-23T22:54:36.042Z,4.77
2019-05-23T22:57:23.366Z,5.73
2019-05-23T23:00:11.584Z,6.97
2019-05-23T23:02:59.075Z,5.40
2019-05-23T23:05:49.049Z,4.73
2019-05-23T23:08:37.233Z,4.47
2019-05-23T23:11:24.563Z,7.50
2019-05-23T23:14:12.329Z,6.70
2019-05-23T23:17:00.330Z,5.03
2019-05-23T23:19:47.815Z,3.90
2019-05-23T23:22:38.155Z,6.43
2019-05-23T23:25:25.200Z,6.50
2019-05-23T23:28:12.577Z,5.20
2019-05-23T23:31:00.040Z,3.90
2019-05-23T23:33:48.150Z,5.23
2019-05-23T23:36:35.995Z,5.33
2019-05-23T23:39:23.833Z,4.10
2019-05-23T23:42:11.472Z,4.47
2019-05-23T23:45:16.705Z,5.43
2019-05-23T23:48:21.214Z,4.83
2019-05-23T23:51:26.883Z,7.93
2019-05-23T23:54:32.246Z,5.30
2019-05-23T23:57:37.928Z,3.77
